Time;durP1;ratioP1;P1;durP2;ratioP2;P2;SDS_P1;SDS_P2;PMS_P1;PMS_P2;Temp;Humidity;BMP_temperature;BMP_pressure;BME280_temperature;BME280_humidity;BME280_pressure;Samples;Min_cycle;Max_cycle;Signal;HPM_P1;HPM_P2
2022/07/11 00:02:05;;;;;;;0.50;0.50;;;12.10;99.90;;;;;;5097341;28;20024;-74
2022/07/11 00:04:32;;;;;;;0.47;0.47;;;12.00;99.90;;;;;;5097195;28;20481;-74
2022/07/11 00:06:59;;;;;;;0.73;0.73;;;12.00;99.90;;;;;;5078747;28;20024;-75
2022/07/11 00:09:25;;;;;;;0.40;0.40;;;12.00;99.90;;;;;;5097932;28;20020;-74
2022/07/11 00:11:50;;;;;;;0.43;0.43;;;12.00;99.90;;;;;;5097442;28;20031;-75
2022/07/11 00:14:17;;;;;;;0.55;0.55;;;11.90;99.90;;;;;;5077391;28;20032;-74
2022/07/11 00:16:43;;;;;;;0.30;0.30;;;11.80;99.90;;;;;;5095454;28;20028;-74
2022/07/11 00:19:09;;;;;;;0.90;0.47;;;11.70;99.90;;;;;;5095557;28;20043;-75
2022/07/11 00:21:36;;;;;;;0.90;0.40;;;11.60;99.90;;;;;;5095619;28;20017;-74
2022/07/11 00:24:02;;;;;;;0.43;0.43;;;11.40;99.90;;;;;;5076386;28;20052;-75
2022/07/11 00:26:28;;;;;;;0.60;0.60;;;11.40;99.90;;;;;;5075922;28;20388;-74
2022/07/11 00:28:54;;;;;;;0.60;0.60;;;11.40;99.90;;;;;;5076446;28;20024;-74
2022/07/11 00:31:20;;;;;;;0.95;0.95;;;11.40;99.90;;;;;;5095423;28;20418;-75
2022/07/11 00:33:45;;;;;;;9.95;0.57;;;11.40;99.90;;;;;;5094379;28;20034;-74
2022/07/11 00:36:12;;;;;;;0.70;0.70;;;11.30;99.90;;;;;;5094024;28;20028;-74
2022/07/11 00:38:37;;;;;;;1.33;0.47;;;11.30;99.90;;;;;;5076216;28;20024;-74
2022/07/11 00:41:03;;;;;;;2.83;0.63;;;11.20;99.90;;;;;;5093865;28;20111;-75
2022/07/11 00:43:33;;;;;;;0.35;0.35;;;11.20;99.90;;;;;;5076474;28;20017;-76
2022/07/11 00:46:00;;;;;;;0.50;0.50;;;11.10;99.90;;;;;;5089347;28;20028;-74
2022/07/11 00:48:25;;;;;;;0.40;0.40;;;11.10;99.90;;;;;;5076296;28;20460;-75
2022/07/11 00:50:51;;;;;;;0.43;0.43;;;11.10;99.90;;;;;;5094560;28;20035;-74
2022/07/11 00:53:19;;;;;;;0.40;0.40;;;11.00;99.90;;;;;;5077191;28;20055;-75
2022/07/11 00:55:45;;;;;;;0.70;0.55;;;;;;;;;;5076747;28;20124;-75
2022/07/11 00:58:12;;;;;;;0.68;0.68;;;10.90;99.90;;;;;;5076072;28;20028;-75
2022/07/11 01:00:39;;;;;;;1.95;0.70;;;10.80;99.90;;;;;;5080019;28;20487;-74
2022/07/11 01:03:05;;;;;;;0.82;0.82;;;10.70;99.90;;;;;;5081461;28;20031;-73
2022/07/11 01:05:31;;;;;;;0.30;0.30;;;10.60;99.90;;;;;;5081190;28;20020;-73
2022/07/11 01:07:56;;;;;;;0.98;0.57;;;10.60;99.90;;;;;;5098506;28;20415;-73
2022/07/11 01:10:23;;;;;;;0.35;0.35;;;10.50;99.90;;;;;;5079497;28;20024;-74
2022/07/11 01:12:49;;;;;;;0.75;0.35;;;10.50;99.90;;;;;;5097888;28;20047;-74
2022/07/11 01:15:15;;;;;;;1.25;0.70;;;10.50;99.90;;;;;;5079220;28;20438;-74
2022/07/11 01:17:41;;;;;;;0.40;0.40;;;10.50;99.90;;;;;;5097719;28;20065;-75
2022/07/11 01:20:12;;;;;;;0.68;0.68;;;10.50;99.90;;;;;;5098470;28;20095;-74
2022/07/11 01:22:50;;;;;;;1.08;1.08;;;10.60;99.90;;;;;;5099048;28;20040;-74
2022/07/11 01:25:38;;;;;;;0.40;0.40;;;10.50;99.90;;;;;;5100609;28;20058;-74
2022/07/11 01:28:06;;;;;;;0.40;0.40;;;10.40;99.90;;;;;;5097934;28;20028;-73
2022/07/11 01:30:32;;;;;;;0.40;0.40;;;10.50;99.90;;;;;;5098824;28;20024;-74
2022/07/11 01:32:59;;;;;;;0.40;0.40;;;10.50;99.90;;;;;;5098346;28;20016;-74
2022/07/11 01:35:26;;;;;;;0.70;0.70;;;10.40;99.90;;;;;;5097729;28;20074;-75
2022/07/11 01:37:52;;;;;;;0.50;0.50;;;10.40;99.90;;;;;;5098189;28;20387;-74
2022/07/11 01:40:18;;;;;;;4.10;2.22;;;10.40;99.90;;;;;;5098108;28;20516;-74
2022/07/11 01:42:45;;;;;;;0.90;0.75;;;10.50;99.90;;;;;;5098465;28;20415;-75
2022/07/11 01:45:12;;;;;;;0.38;0.35;;;10.50;99.90;;;;;;5097691;28;20035;-75
2022/07/11 01:47:38;;;;;;;2.38;0.95;;;10.40;99.90;;;;;;5100549;28;20020;-73
2022/07/11 01:50:04;;;;;;;0.70;0.45;;;10.40;99.90;;;;;;5098236;28;20020;-74
2022/07/11 01:52:30;;;;;;;1.38;0.47;;;10.30;99.90;;;;;;5079645;28;20043;-76
2022/07/11 01:54:56;;;;;;;0.50;0.50;;;10.20;99.90;;;;;;5078165;28;20036;-73
2022/07/11 01:57:21;;;;;;;0.40;0.40;;;10.20;99.90;;;;;;5097550;28;20148;-74
2022/07/11 01:59:47;;;;;;;0.57;0.57;;;10.10;99.90;;;;;;5079269;28;20119;-74
2022/07/11 02:02:13;;;;;;;0.95;0.95;;;10.10;99.90;;;;;;5097681;28;20023;-74
2022/07/11 02:04:40;;;;;;;0.60;0.60;;;10.10;99.90;;;;;;5097417;28;20024;-74
2022/07/11 02:07:05;;;;;;;0.70;0.60;;;10.10;99.90;;;;;;5096404;28;20050;-74
2022/07/11 02:09:31;;;;;;;0.63;0.50;;;10.00;99.90;;;;;;5096424;28;20055;-76
2022/07/11 02:11:57;;;;;;;3.35;1.38;;;10.00;99.90;;;;;;5095285;28;20531;-74
2022/07/11 02:14:23;;;;;;;0.60;0.60;;;9.90;99.90;;;;;;5096023;28;20051;-74
2022/07/11 02:16:48;;;;;;;0.80;0.80;;;9.90;99.90;;;;;;5096019;28;20020;-73
2022/07/11 02:19:15;;;;;;;0.70;0.70;;;10.00;99.90;;;;;;5096331;28;20472;-73
2022/07/11 02:21:41;;;;;;;0.60;0.60;;;9.90;99.90;;;;;;5096459;28;20020;-74
2022/07/11 02:24:07;;;;;;;1.33;0.65;;;9.90;99.90;;;;;;5078991;28;20468;-73
2022/07/11 02:26:32;;;;;;;0.73;0.73;;;9.90;99.90;;;;;;5078334;28;20039;-74
2022/07/11 02:28:58;;;;;;;1.75;0.77;;;9.90;99.90;;;;;;5096528;28;20022;-75
2022/07/11 02:31:24;;;;;;;0.55;0.55;;;9.90;99.90;;;;;;5097154;28;20111;-74
2022/07/11 02:33:49;;;;;;;0.80;0.70;;;9.90;99.90;;;;;;5097781;28;20044;-74
2022/07/11 02:36:15;;;;;;;0.73;0.73;;;9.90;99.90;;;;;;5082115;28;20035;-74
2022/07/11 02:38:42;;;;;;;0.50;0.50;;;9.90;99.90;;;;;;5084278;28;20056;-74
2022/07/11 02:41:08;;;;;;;1.02;1.02;;;9.80;99.90;;;;;;5100073;28;20019;-74
2022/07/11 02:43:33;;;;;;;1.52;1.17;;;9.80;99.90;;;;;;5095792;28;20035;-73
2022/07/11 02:45:59;;;;;;;1.27;0.63;;;9.70;99.90;;;;;;5095718;28;20061;-74
2022/07/11 02:48:25;;;;;;;2.25;1.65;;;9.70;99.90;;;;;;5096342;28;20029;-74
2022/07/11 02:50:51;;;;;;;1.00;0.90;;;9.70;99.90;;;;;;5077723;28;20016;-75
2022/07/11 02:53:17;;;;;;;0.93;0.93;;;9.70;99.90;;;;;;5095519;28;20056;-75
2022/07/11 02:55:42;;;;;;;3.20;1.35;;;9.70;99.90;;;;;;5095885;28;20435;-74
2022/07/11 02:58:08;;;;;;;2.08;1.45;;;9.70;99.90;;;;;;5095921;28;20020;-74
2022/07/11 03:00:34;;;;;;;0.43;0.43;;;9.60;99.90;;;;;;5095757;28;20085;-74
2022/07/11 03:02:59;;;;;;;2.38;0.82;;;9.60;99.90;;;;;;5095417;28;20027;-74
2022/07/11 03:05:25;;;;;;;2.30;0.50;;;9.50;99.90;;;;;;5095303;28;20034;-74
2022/07/11 03:07:51;;;;;;;0.70;0.70;;;9.50;99.90;;;;;;5095216;28;20078;-73
2022/07/11 03:10:17;;;;;;;1.00;1.00;;;9.50;99.90;;;;;;5095170;28;20066;-74
2022/07/11 03:12:43;;;;;;;0.52;0.52;;;9.50;99.90;;;;;;5095056;28;20465;-74
2022/07/11 03:15:09;;;;;;;0.52;0.50;;;9.50;99.90;;;;;;5077026;28;20036;-74
2022/07/11 03:17:36;;;;;;;0.82;0.82;;;9.60;99.90;;;;;;5095345;28;20167;-75
2022/07/11 03:20:05;;;;;;;0.90;0.90;;;9.70;99.90;;;;;;5095328;28;20032;-74
2022/07/11 03:22:31;;;;;;;0.85;0.43;;;9.60;99.90;;;;;;5094918;28;20020;-75
2022/07/11 03:24:57;;;;;;;0.50;0.50;;;9.60;99.90;;;;;;5094953;28;20024;-73
2022/07/11 03:27:24;;;;;;;0.50;0.50;;;9.70;99.90;;;;;;5094735;28;20044;-74
2022/07/11 03:29:50;;;;;;;1.05;0.88;;;9.70;99.90;;;;;;5094770;28;20027;-74
2022/07/11 03:32:16;;;;;;;0.75;0.50;;;9.60;99.90;;;;;;5076825;28;20024;-75
2022/07/11 03:35:40;;;;;;;0.60;0.60;;;9.50;99.90;;;;;;5094866;28;20028;-75
2022/07/11 03:37:27;;;;;;;1.73;1.63;;;9.40;99.90;;;;;;5094620;28;20027;-75
2022/07/11 03:39:53;;;;;;;0.50;0.50;;;9.40;99.90;;;;;;5094688;28;20103;-75
2022/07/11 03:42:18;;;;;;;0.70;0.55;;;9.40;99.90;;;;;;5094926;28;20104;-74
2022/07/11 03:44:44;;;;;;;0.57;0.57;;;9.30;99.90;;;;;;5094208;28;20067;-75
2022/07/11 03:47:09;;;;;;;0.40;0.40;;;9.30;99.90;;;;;;5076419;28;20111;-75
2022/07/11 03:49:35;;;;;;;0.63;0.63;;;9.40;99.90;;;;;;5094474;28;20024;-75
2022/07/11 03:52:01;;;;;;;0.50;0.50;;;9.40;99.90;;;;;;5094424;28;20040;-75
2022/07/11 03:54:26;;;;;;;0.73;0.50;;;9.50;99.90;;;;;;5094403;28;20059;-74
2022/07/11 03:56:52;;;;;;;1.25;1.00;;;9.50;99.90;;;;;;5094611;28;20479;-74
2022/07/11 03:59:17;;;;;;;1.27;0.93;;;9.50;99.90;;;;;;5094375;28;20038;-74
2022/07/11 04:01:43;;;;;;;0.50;0.50;;;9.50;99.90;;;;;;5094157;28;20043;-74
2022/07/11 04:04:09;;;;;;;0.50;0.50;;;9.50;99.90;;;;;;5094008;28;20024;-75
2022/07/11 04:06:35;;;;;;;4.43;1.38;;;9.50;99.90;;;;;;5094061;28;20024;-74
2022/07/11 04:09:00;;;;;;;0.52;0.52;;;9.50;99.90;;;;;;5094169;28;20019;-73
2022/07/11 04:11:26;;;;;;;0.73;0.73;;;9.60;99.90;;;;;;5093899;28;20024;-74
2022/07/11 04:13:52;;;;;;;0.52;0.47;;;9.70;99.90;;;;;;5094102;28;20051;-74
2022/07/11 04:16:18;;;;;;;0.60;0.60;;;9.90;99.90;;;;;;5094680;28;20028;-75
2022/07/11 04:18:43;;;;;;;0.50;0.50;;;10.00;99.90;;;;;;5094057;28;20016;-74
2022/07/11 04:21:09;;;;;;;1.15;0.98;;;10.00;99.90;;;;;;5076310;28;20024;-74
2022/07/11 04:23:35;;;;;;;1.30;0.60;;;10.00;99.90;;;;;;5075989;28;20084;-74
2022/07/11 04:26:01;;;;;;;0.70;0.70;;;10.00;99.90;;;;;;5094238;28;20074;-75
2022/07/11 04:28:27;;;;;;;0.57;0.57;;;10.00;99.90;;;;;;5076410;28;20024;-74
2022/07/11 04:30:52;;;;;;;0.50;0.50;;;10.00;99.90;;;;;;5094036;28;20457;-74
2022/07/11 04:33:18;;;;;;;2.10;0.60;;;10.10;99.90;;;;;;5094517;28;20453;-74
2022/07/11 04:35:44;;;;;;;0.82;0.68;;;10.10;99.90;;;;;;5097997;28;20036;-74
2022/07/11 04:38:09;;;;;;;0.50;0.50;;;10.10;99.90;;;;;;5098537;28;20016;-74
2022/07/11 04:40:35;;;;;;;0.65;0.65;;;10.20;99.90;;;;;;5098118;28;20020;-75
2022/07/11 04:43:00;;;;;;;0.55;0.55;;;10.30;99.90;;;;;;5098624;28;20181;-75
2022/07/11 04:45:26;;;;;;;1.33;0.73;;;10.30;99.90;;;;;;5083642;28;20460;-74
2022/07/11 04:47:52;;;;;;;0.55;0.55;;;10.80;99.90;;;;;;5103210;28;20384;-74
2022/07/11 04:50:17;;;;;;;1.30;0.98;;;10.90;99.90;;;;;;5084756;28;20021;-74
2022/07/11 04:52:43;;;;;;;0.30;0.30;;;11.00;99.90;;;;;;5100574;28;20117;-74
2022/07/11 04:55:09;;;;;;;0.30;0.30;;;11.10;99.90;;;;;;5102172;28;20039;-74
2022/07/11 04:57:34;;;;;;;0.65;0.50;;;11.60;99.90;;;;;;5084571;28;20051;-74
2022/07/11 05:00:00;;;;;;;0.80;0.80;;;12.20;99.90;;;;;;5097351;28;20508;-74
2022/07/11 05:02:26;;;;;;;0.50;0.50;;;12.60;99.90;;;;;;5096768;28;20050;-74
2022/07/11 05:04:51;;;;;;;0.60;0.60;;;12.90;99.90;;;;;;5096859;28;20023;-74
2022/07/11 05:07:17;;;;;;;0.60;0.45;;;13.10;99.90;;;;;;5096864;28;20350;-74
2022/07/11 05:09:43;;;;;;;0.30;0.30;;;13.00;99.90;;;;;;5096715;28;20035;-75
2022/07/11 05:12:08;;;;;;;0.45;0.45;;;13.00;99.90;;;;;;5096503;28;20031;-74
2022/07/11 05:14:34;;;;;;;0.60;0.60;;;12.90;99.90;;;;;;5096708;28;20032;-75
2022/07/11 05:17:00;;;;;;;0.50;0.50;;;12.90;99.90;;;;;;5096749;28;20031;-74
2022/07/11 05:19:26;;;;;;;0.20;0.20;;;12.80;99.90;;;;;;5080742;28;20032;-75
2022/07/11 05:21:51;;;;;;;2.42;0.88;;;12.70;99.90;;;;;;5100922;28;20020;-74
2022/07/11 05:24:18;;;;;;;0.40;0.40;;;12.70;99.90;;;;;;5081299;28;20027;-74
2022/07/11 05:26:44;;;;;;;0.80;0.80;;;12.70;99.90;;;;;;5082614;28;20023;-74
2022/07/11 05:29:10;;;;;;;0.40;0.40;;;12.70;99.90;;;;;;5100549;28;20431;-74
2022/07/11 05:31:36;;;;;;;1.65;1.13;;;12.70;99.90;;;;;;5098369;28;20020;-74
2022/07/11 05:34:02;;;;;;;0.40;0.40;;;12.70;99.90;;;;;;5097566;28;20150;-74
2022/07/11 05:36:28;;;;;;;0.85;0.60;;;12.90;99.90;;;;;;5080493;28;20071;-75
2022/07/11 05:38:53;;;;;;;0.43;0.43;;;12.90;99.90;;;;;;5099860;28;20028;-75
2022/07/11 05:41:19;;;;;;;0.50;0.50;;;13.00;99.90;;;;;;5098122;28;20028;-76
2022/07/11 05:43:45;;;;;;;0.40;0.40;;;13.10;99.90;;;;;;5098264;28;20025;-74
2022/07/11 05:46:10;;;;;;;0.85;0.85;;;13.20;99.90;;;;;;5097382;28;20089;-75
2022/07/11 05:48:36;;;;;;;0.82;0.82;;;13.30;99.90;;;;;;5079901;28;20035;-74
2022/07/11 05:51:01;;;;;;;3.00;0.80;;;13.40;99.90;;;;;;5097829;28;20370;-74
2022/07/11 05:53:27;;;;;;;0.35;0.35;;;13.50;99.90;;;;;;5097431;28;20040;-74
2022/07/11 05:55:53;;;;;;;1.65;0.90;;;13.60;99.90;;;;;;5080621;28;20039;-74
2022/07/11 05:58:19;;;;;;;0.82;0.82;;;13.70;99.90;;;;;;5082496;28;20069;-74
2022/07/11 06:00:44;;;;;;;0.70;0.70;;;13.80;99.90;;;;;;5100167;28;20024;-74
2022/07/11 06:03:10;;;;;;;0.80;0.80;;;13.90;99.90;;;;;;5104555;28;20087;-74
2022/07/11 06:05:35;;;;;;;2.85;1.02;;;14.00;99.90;;;;;;5089301;28;20028;-74
2022/07/11 06:10:45;;;;;;;0.70;0.70;;;14.30;99.90;;;;;;5101933;28;20031;-75
2022/07/11 06:13:11;;;;;;;1.30;0.88;;;14.40;99.90;;;;;;5101954;28;20461;-74
2022/07/11 06:15:37;;;;;;;1.00;0.93;;;14.40;99.90;;;;;;5100977;28;20480;-74
2022/07/11 06:18:02;;;;;;;1.92;1.70;;;14.40;99.90;;;;;;5097395;28;20025;-74
2022/07/11 06:20:29;;;;;;;0.60;0.60;;;14.50;99.90;;;;;;5099067;28;20031;-74
2022/07/11 06:22:55;;;;;;;0.70;0.70;;;;;;;;;;5099583;28;20061;-74
2022/07/11 06:25:21;;;;;;;1.40;0.68;;;14.70;99.90;;;;;;5098190;28;20024;-74
2022/07/11 06:27:46;;;;;;;1.45;1.15;;;14.80;99.90;;;;;;5097128;28;20012;-74
2022/07/11 06:30:12;;;;;;;5.88;2.58;;;15.00;99.90;;;;;;5095953;28;20111;-74
2022/07/11 06:32:39;;;;;;;0.50;0.50;;;15.00;99.90;;;;;;5095054;28;20020;-74
2022/07/11 06:35:07;;;;;;;1.45;0.80;;;14.90;99.90;;;;;;5077704;28;20032;-74
2022/07/11 06:37:33;;;;;;;1.00;1.00;;;14.90;99.90;;;;;;5078394;28;20027;-76
2022/07/11 06:39:58;;;;;;;1.23;1.08;;;14.90;99.90;;;;;;5077048;28;20362;-76
2022/07/11 06:42:24;;;;;;;0.63;0.63;;;15.20;99.90;;;;;;5097751;28;20069;-76
2022/07/11 06:44:52;;;;;;;0.55;0.55;;;16.10;99.90;;;;;;5081135;28;20588;-76
2022/07/11 06:47:18;;;;;;;0.50;0.50;;;17.30;99.90;;;;;;5098507;28;20016;-76
2022/07/11 06:49:43;;;;;;;0.57;0.57;;;18.70;99.90;;;;;;5097041;28;20437;-76
2022/07/11 06:52:09;;;;;;;4.22;0.65;;;19.70;99.90;;;;;;5099111;28;20492;-75
2022/07/11 06:54:35;;;;;;;0.65;0.65;;;20.70;99.90;;;;;;5095109;28;20036;-76
2022/07/11 06:57:01;;;;;;;0.70;0.70;;;22.10;88.60;;;;;;5094626;28;20052;-75
2022/07/11 06:59:26;;;;;;;0.90;0.73;;;22.50;77.10;;;;;;5077180;28;20453;-76
2022/07/11 07:01:52;;;;;;;2.80;1.17;;;23.10;71.50;;;;;;5094437;28;20027;-87
2022/07/11 07:04:18;;;;;;;1.48;0.50;;;23.50;68.10;;;;;;5094590;28;20059;-79
2022/07/11 07:06:43;;;;;;;0.40;0.40;;;23.70;67.80;;;;;;5094540;28;20380;-77
2022/07/11 07:09:13;;;;;;;0.50;0.50;;;;;;;;;;5094733;28;20376;-80
2022/07/11 07:11:38;;;;;;;0.20;0.20;;;24.50;62.60;;;;;;5094551;28;20027;-78
2022/07/11 07:14:04;;;;;;;1.23;0.40;;;24.60;60.80;;;;;;5094939;28;20024;-78
2022/07/11 07:16:30;;;;;;;0.43;0.30;;;24.30;60.70;;;;;;5094491;28;20028;-78
2022/07/11 07:18:55;;;;;;;2.17;0.68;;;24.90;60.70;;;;;;5094294;28;20428;-80
2022/07/11 07:21:21;;;;;;;0.20;0.20;;;25.60;58.70;;;;;;5094107;28;20430;-82
2022/07/11 07:23:47;;;;;;;0.30;0.30;;;26.00;56.50;;;;;;5094058;28;20545;-80
2022/07/11 07:26:12;;;;;;;0.30;0.30;;;26.10;56.60;;;;;;5077623;28;20112;-78
2022/07/11 07:28:39;;;;;;;0.30;0.30;;;24.90;57.00;;;;;;5096736;28;20027;-88
2022/07/11 07:31:06;;;;;;;0.68;0.68;;;24.60;57.20;;;;;;5075979;28;20492;-83
2022/07/11 07:33:31;;;;;;;0.82;0.70;;;24.90;55.90;;;;;;5094490;28;20419;-78
2022/07/11 07:35:57;;;;;;;0.38;0.38;;;24.80;56.80;;;;;;5079617;28;20036;-75
2022/07/11 07:38:22;;;;;;;0.20;0.20;;;24.50;59.80;;;;;;5080920;28;20024;-76
2022/07/11 07:40:48;;;;;;;0.25;0.17;;;24.70;57.70;;;;;;5096456;28;20016;-76
2022/07/11 07:43:14;;;;;;;0.20;0.20;;;25.40;57.00;;;;;;5093830;28;20020;-75
2022/07/11 07:45:40;;;;;;;0.20;0.20;;;25.60;56.40;;;;;;5094042;28;20031;-75
2022/07/11 07:48:05;;;;;;;0.75;0.30;;;25.10;56.20;;;;;;5095907;28;20086;-76
2022/07/11 07:50:31;;;;;;;1.23;1.02;;;24.20;58.70;;;;;;5096224;28;20031;-75
2022/07/11 07:52:57;;;;;;;0.40;0.40;;;23.40;60.40;;;;;;5095353;28;20040;-75
2022/07/11 07:55:22;;;;;;;0.30;0.30;;;23.50;58.70;;;;;;5093537;28;20066;-75
2022/07/11 07:57:48;;;;;;;0.17;0.17;;;24.00;59.40;;;;;;5075570;28;20449;-75
2022/07/11 08:03:04;;;;;;;0.38;0.38;;;24.90;57.80;;;;;;5093626;28;20031;-75
2022/07/11 08:05:29;;;;;;;0.68;0.55;;;25.00;58.50;;;;;;5075324;28;20054;-76
2022/07/11 08:07:55;;;;;;;0.40;0.30;;;25.60;55.30;;;;;;5093337;28;20380;-77
2022/07/11 08:10:21;;;;;;;0.28;0.20;;;25.30;56.30;;;;;;5092936;28;20483;-76
2022/07/11 08:12:46;;;;;;;0.17;0.17;;;25.90;55.60;;;;;;5093557;28;20017;-76
2022/07/11 08:15:12;;;;;;;0.50;0.50;;;25.00;55.10;;;;;;5094939;28;20074;-76
2022/07/11 08:17:38;;;;;;;0.20;0.20;;;24.90;56.30;;;;;;5096582;28;20041;-76
2022/07/11 08:20:04;;;;;;;1.65;0.95;;;24.40;57.80;;;;;;5093762;28;20384;-75
2022/07/11 08:22:30;;;;;;;7.00;2.00;;;24.60;56.60;;;;;;5093223;28;20441;-75
2022/07/11 08:24:55;;;;;;;0.95;0.95;;;24.90;56.20;;;;;;5092879;28;20036;-76
2022/07/11 08:27:21;;;;;;;0.73;0.57;;;25.40;56.60;;;;;;5075142;28;20023;-77
2022/07/11 08:29:47;;;;;;;0.30;0.30;;;24.80;56.40;;;;;;5075096;28;20036;-76
2022/07/11 08:32:13;;;;;;;0.70;0.70;;;25.00;56.00;;;;;;5074863;28;20036;-76
2022/07/11 08:34:39;;;;;;;0.10;0.10;;;25.10;55.50;;;;;;5075264;28;20059;-76
2022/07/11 08:37:05;;;;;;;0.35;0.35;;;24.30;57.00;;;;;;5094599;28;20020;-76
2022/07/11 08:39:30;;;;;;;3.30;1.77;;;23.50;59.20;;;;;;5094857;28;20074;-76
2022/07/11 08:41:57;;;;;;;0.30;0.30;;;23.30;59.70;;;;;;5076467;28;20103;-76
2022/07/11 08:44:24;;;;;;;0.52;0.40;;;23.40;60.30;;;;;;5095020;28;20093;-75
2022/07/11 08:46:52;;;;;;;0.40;0.40;;;23.40;61.00;;;;;;5094718;28;20081;-76
2022/07/11 08:49:19;;;;;;;0.90;0.47;;;23.50;60.60;;;;;;5093149;28;20099;-76
2022/07/11 08:51:47;;;;;;;0.30;0.30;;;24.10;60.20;;;;;;5092775;28;20135;-76
2022/07/11 08:54:13;;;;;;;0.20;0.20;;;24.40;59.50;;;;;;5074560;28;20027;-76
2022/07/11 08:56:39;;;;;;;0.30;0.30;;;25.10;56.50;;;;;;5092887;28;20024;-76
2022/07/11 08:59:05;;;;;;;1.10;0.28;;;25.40;56.10;;;;;;5074805;28;20112;-74
2022/07/11 09:01:34;;;;;;;0.20;0.20;;;25.90;56.00;;;;;;5093150;28;20016;-76
2022/07/11 09:04:00;;;;;;;0.70;0.70;;;25.90;55.10;;;;;;5074781;28;20032;-76
2022/07/11 09:06:26;;;;;;;22.95;3.47;;;26.30;55.10;;;;;;5092907;28;20476;-76
2022/07/11 09:09:00;;;;;;;0.20;0.20;;;26.10;54.90;;;;;;5092673;28;20078;-76
2022/07/11 09:11:26;;;;;;;0.40;0.20;;;25.40;55.00;;;;;;5093031;28;20027;-75
2022/07/11 09:13:52;;;;;;;0.52;0.52;;;25.00;56.10;;;;;;5092638;28;20103;-76
2022/07/11 09:16:19;;;;;;;0.30;0.30;;;25.40;56.40;;;;;;5092482;28;20115;-76
2022/07/11 09:18:45;;;;;;;0.38;0.38;;;25.00;55.50;;;;;;5075206;28;20035;-75
2022/07/11 09:26:48;;;;;;;0.47;0.47;;;25.00;56.50;;;;;;5096260;28;20039;-79
2022/07/11 09:29:16;;;;;;;0.40;0.40;;;25.80;55.60;;;;;;5078004;28;20032;-79
2022/07/11 09:31:44;;;;;;;0.43;0.43;;;25.90;57.90;;;;;;5078083;28;20020;-76
2022/07/11 09:34:18;;;;;;;0.33;0.20;;;25.60;56.40;;;;;;5078156;28;20024;-78
2022/07/11 09:36:54;;;;;;;0.50;0.35;;;25.30;55.50;;;;;;5078028;28;20016;-78
2022/07/11 09:39:26;;;;;;;0.20;0.20;;;24.90;57.30;;;;;;5096447;28;20047;-79
2022/07/11 09:41:52;;;;;;;0.20;0.20;;;25.10;59.10;;;;;;5078128;28;20036;-79
2022/07/11 09:44:28;;;;;;;1.65;0.30;;;25.10;56.00;;;;;;5098480;28;20024;-79
2022/07/11 09:46:58;;;;;;;2.05;0.35;;;24.50;56.40;;;;;;5095716;28;20107;-79
2022/07/11 09:49:35;;;;;;;0.20;0.20;;;25.20;56.10;;;;;;5077735;28;20066;-80
2022/07/11 09:52:10;;;;;;;1.15;0.20;;;25.60;55.10;;;;;;5095723;28;20040;-76
2022/07/11 09:54:59;;;;;;;0.20;0.20;;;25.60;55.00;;;;;;5078487;28;20028;-76
2022/07/11 09:57:36;;;;;;;0.20;0.20;;;23.70;57.60;;;;;;5079836;28;20028;-75
2022/07/11 10:00:07;;;;;;;0.30;0.30;;;23.40;58.70;;;;;;5078318;28;20102;-78
2022/07/11 10:02:34;;;;;;;0.17;0.17;;;23.60;58.40;;;;;;5095600;28;20496;-76
2022/07/11 10:05:00;;;;;;;0.50;0.50;;;24.00;59.30;;;;;;5095723;28;20354;-75
2022/07/11 10:07:27;;;;;;;0.17;0.17;;;23.80;58.50;;;;;;5078461;28;20024;-76
2022/07/11 10:09:53;;;;;;;5.28;2.05;;;23.90;59.50;;;;;;5095817;28;20016;-76
2022/07/11 10:12:20;;;;;;;0.20;0.20;;;24.00;59.90;;;;;;5095785;28;20578;-75
2022/07/11 10:14:47;;;;;;;0.75;0.70;;;24.20;61.30;;;;;;5077284;28;20411;-76
2022/07/11 10:17:49;;;;;;;0.20;0.20;;;24.70;56.90;;;;;;5077288;28;20020;-77
2022/07/11 10:20:23;;;;;;;0.40;0.30;;;25.40;57.00;;;;;;5095574;28;20436;-76
2022/07/11 10:23:08;;;;;;;0.10;0.10;;;25.60;55.80;;;;;;5076951;28;20111;-77
2022/07/11 10:25:48;;;;;;;1.70;0.85;;;25.50;58.20;;;;;;5095033;28;20365;-76
2022/07/11 10:28:48;;;;;;;0.20;0.20;;;25.20;57.20;;;;;;5095267;28;20028;-78
2022/07/11 10:31:22;;;;;;;0.52;0.52;;;24.80;57.60;;;;;;5033810;28;20039;-76
2022/07/11 10:34:15;;;;;;;0.10;0.10;;;24.80;59.20;;;;;;5076844;28;20028;-76
2022/07/11 10:36:41;;;;;;;0.30;0.30;;;24.50;59.50;;;;;;5077561;28;20039;-77
2022/07/11 10:39:24;;;;;;;0.30;0.30;;;24.60;57.00;;;;;;5094902;28;20487;-76
2022/07/11 10:41:50;;;;;;;0.10;0.10;;;25.20;59.60;;;;;;5094822;28;20032;-76
2022/07/11 10:44:17;;;;;;;0.40;0.40;;;25.30;55.30;;;;;;5094828;28;20020;-76
2022/07/11 10:46:42;;;;;;;0.13;0.13;;;25.10;60.10;;;;;;5095009;28;20031;-76
2022/07/11 10:49:18;;;;;;;0.20;0.20;;;25.20;56.20;;;;;;5076803;28;20028;-75
2022/07/11 10:51:50;;;;;;;3.08;1.05;;;24.80;56.60;;;;;;5076575;28;20048;-75
2022/07/11 10:54:21;;;;;;;0.17;0.17;;;25.00;56.70;;;;;;5076525;28;20157;-75
2022/07/11 10:57:25;;;;;;;0.20;0.20;;;25.30;57.20;;;;;;5094568;28;20430;-75
2022/07/11 11:00:00;;;;;;;1.15;0.93;;;25.40;55.30;;;;;;5010856;28;20032;-77
2022/07/11 11:02:27;;;;;;;0.15;0.10;;;26.20;55.10;;;;;;5094517;28;20480;-79
2022/07/11 11:04:58;;;;;;;0.13;0.13;;;26.10;55.20;;;;;;5094609;28;20161;-75
2022/07/11 11:07:37;;;;;;;0.60;0.30;;;25.80;54.70;;;;;;5076385;28;20029;-76
2022/07/11 11:10:18;;;;;;;0.20;0.20;;;25.70;55.20;;;;;;5076266;28;20028;-76
2022/07/11 11:13:11;;;;;;;0.10;0.10;;;26.50;53.70;;;;;;5094259;28;20012;-76
2022/07/11 11:15:45;;;;;;;0.20;0.20;;;27.30;51.90;;;;;;5075900;28;20032;-76
2022/07/11 11:18:25;;;;;;;0.30;0.30;;;27.80;52.20;;;;;;5094093;28;20069;-76
2022/07/11 11:21:02;;;;;;;0.30;0.30;;;27.70;53.80;;;;;;5094185;28;20031;-76
2022/07/11 11:23:41;;;;;;;1.83;0.90;;;27.10;55.10;;;;;;5094374;28;20046;-77
2022/07/11 11:26:07;;;;;;;0.20;0.20;;;26.50;53.60;;;;;;5094195;28;20073;-75
2022/07/11 11:28:33;;;;;;;0.40;0.17;;;26.60;56.20;;;;;;5094130;28;20488;-76
2022/07/11 11:31:03;;;;;;;0.25;0.22;;;27.00;53.00;;;;;;5075837;28;20109;-77
2022/07/11 11:33:34;;;;;;;0.20;0.20;;;27.30;53.60;;;;;;5075784;28;20047;-78
2022/07/11 11:36:07;;;;;;;0.20;0.20;;;27.80;54.40;;;;;;5093387;28;20040;-76
2022/07/11 11:38:35;;;;;;;0.03;0.03;;;28.30;51.60;;;;;;5075456;28;20020;-77
2022/07/11 11:41:01;;;;;;;0.20;0.20;;;28.60;50.60;;;;;;5093750;28;20036;-79
2022/07/11 11:43:27;;;;;;;0.20;0.20;;;28.20;50.60;;;;;;5075531;28;20024;-75
2022/07/11 11:45:54;;;;;;;0.38;0.10;;;27.70;51.40;;;;;;5075575;28;20020;-76
2022/07/11 11:48:34;;;;;;;0.10;0.10;;;28.10;51.80;;;;;;5075529;28;20020;-77
2022/07/11 11:51:08;;;;;;;0.20;0.20;;;28.80;51.40;;;;;;5093554;28;20027;-76
2022/07/11 11:53:44;;;;;;;0.17;0.17;;;28.40;50.60;;;;;;5075692;28;20052;-82
2022/07/11 11:56:36;;;;;;;0.55;0.28;;;28.90;50.80;;;;;;5093624;28;20035;-80
2022/07/11 11:59:04;;;;;;;0.08;0.08;;;29.20;50.20;;;;;;5077196;28;20126;-81
2022/07/11 12:01:32;;;;;;;0.22;0.22;;;30.40;49.20;;;;;;5093810;28;20047;-83
2022/07/11 12:04:03;;;;;;;0.10;0.10;;;30.30;49.70;;;;;;5093499;28;20085;-80
2022/07/11 12:06:31;;;;;;;0.20;0.20;;;29.40;49.00;;;;;;5093546;28;20016;-80
2022/07/11 12:09:02;;;;;;;0.55;0.55;;;29.40;49.70;;;;;;5093357;28;20024;-78
2022/07/11 12:11:28;;;;;;;0.17;0.13;;;;;;;;;;5093230;28;20032;-79
2022/07/11 12:14:03;;;;;;;0.38;0.22;;;29.00;49.50;;;;;;5075168;28;20031;-79
2022/07/11 12:16:41;;;;;;;4.97;0.15;;;28.60;50.30;;;;;;5093286;28;20031;-78
2022/07/11 12:19:14;;;;;;;0.00;0.00;;;28.80;52.50;;;;;;5093325;28;20378;-80
2022/07/11 12:21:42;;;;;;;0.13;0.13;;;29.40;50.80;;;;;;5093245;28;20043;-79
2022/07/11 12:24:11;;;;;;;0.00;0.00;;;29.40;49.90;;;;;;5093099;28;20024;-79
2022/07/11 12:26:38;;;;;;;0.10;0.10;;;29.50;49.20;;;;;;5093086;28;20035;-79
2022/07/11 12:29:05;;;;;;;0.35;0.35;;;29.60;51.90;;;;;;5092993;28;20047;-78
2022/07/11 12:31:44;;;;;;;0.20;0.20;;;31.20;47.30;;;;;;5092903;28;20024;-80
2022/07/11 12:34:10;;;;;;;0.10;0.10;;;31.50;47.10;;;;;;5093022;28;20093;-79
2022/07/11 12:36:37;;;;;;;0.10;0.10;;;31.80;46.40;;;;;;5095550;28;20032;-79
2022/07/11 12:39:04;;;;;;;0.10;0.10;;;;;;;;;;5081643;28;20215;-78
2022/07/11 12:41:32;;;;;;;0.25;0.20;;;31.50;46.20;;;;;;5079975;28;20019;-79
2022/07/11 12:46:42;;;;;;;0.10;0.10;;;31.20;47.70;;;;;;5095423;28;20062;-79
2022/07/11 12:49:10;;;;;;;0.00;0.00;;;30.90;46.90;;;;;;5074797;28;20024;-80
2022/07/11 12:51:41;;;;;;;0.00;0.00;;;31.40;48.50;;;;;;5092648;28;20104;-78
2022/07/11 12:54:12;;;;;;;0.10;0.10;;;31.00;48.60;;;;;;5095412;28;20089;-79
2022/07/11 12:56:38;;;;;;;0.30;0.20;;;31.40;48.00;;;;;;5096312;28;20032;-77
2022/07/11 12:59:05;;;;;;;0.10;0.10;;;30.40;49.00;;;;;;5096894;28;20012;-78
2022/07/11 13:01:32;;;;;;;2.03;1.02;;;29.80;49.40;;;;;;5078831;28;20024;-79
2022/07/11 13:03:59;;;;;;;0.00;0.00;;;29.70;51.20;;;;;;5096762;28;20027;-77
2022/07/11 13:09:13;;;;;;;1.27;1.17;;;29.00;50.90;;;;;;5096817;28;20050;-76
2022/07/11 13:11:38;;;;;;;0.10;0.10;;;28.70;51.10;;;;;;5096798;28;20027;-75